Terminal Aerodrome Forecast
Issued by NWS Charleston, WV

Current Version | Previous Version | Graphics & Text | Print | Product List | Glossary On
Versions: 1 2 3 4 5 6 7 8 9 10 11 12 13 14 15 16 17 18 19 20 21 22 23 24 25 26 27
000
FTUS41 KRLX 182300
TAFCRW
TAF
KCRW 182338Z 1900/1924 VRB03KT P6SM SCT050
     FM190200 00000KT P6SM SCT200
     FM190400 00000KT 4SM BR SCT250
     FM190700 00000KT 3/4SM BR SCT001
     FM190900 00000KT 1/2SM FG VV001
     FM191300 00000KT 1 1/2SM BR BKN008
     FM191400 12004KT P6SM SCT020
     FM191700 12004KT P6SM SCT035=

USA.gov is the U.S. government's official web portal to all federal, state and local government web resources and services.